Time;durP1;ratioP1;P1;durP2;ratioP2;P2;SDS_P1;SDS_P2;PMS_P1;PMS_P2;Temp;Humidity;BMP_temperature;BMP_pressure;BME280_temperature;BME280_humidity;BME280_pressure;Samples;Min_cycle;Max_cycle;Signal;HPM_P1;HPM_P2
2022/11/21 00:01:50;;;;;;;0.73;0.60;;;13.50;61.50;;;;;;5088829;28;45305;-88
2022/11/21 00:04:17;;;;;;;0.40;0.40;;;13.50;61.50;;;;;;5088799;28;45339;-89
2022/11/21 00:06:44;;;;;;;0.75;0.50;;;13.50;61.50;;;;;;5088493;28;45623;-89
2022/11/21 00:09:11;;;;;;;0.98;0.50;;;13.50;61.50;;;;;;5088661;28;45207;-88
2022/11/21 00:11:37;;;;;;;0.73;0.40;;;13.50;61.50;;;;;;5088649;28;45252;-89
2022/11/21 00:14:04;;;;;;;0.47;0.40;;;13.50;61.60;;;;;;5088970;27;45480;-88
2022/11/21 00:16:33;;;;;;;0.85;0.32;;;13.50;61.50;;;;;;5088346;28;46345;-88
2022/11/21 00:19:00;;;;;;;1.65;0.40;;;13.50;61.50;;;;;;5087676;28;45293;-88
2022/11/21 00:21:26;;;;;;;0.50;0.50;;;13.40;61.50;;;;;;5088651;27;45289;-90
2022/11/21 00:23:53;;;;;;;0.73;0.50;;;13.40;61.50;;;;;;5088206;28;45400;-89
2022/11/21 00:26:20;;;;;;;0.50;0.50;;;13.40;61.50;;;;;;5087403;27;45582;-90
2022/11/21 00:28:47;;;;;;;0.88;0.65;;;13.50;61.50;;;;;;5087941;28;45299;-90
2022/11/21 00:31:20;;;;;;;0.50;0.45;;;13.40;61.50;;;;;;5088169;28;45189;-89
2022/11/21 00:33:48;;;;;;;0.93;0.60;;;13.40;61.50;;;;;;5088573;28;45458;-89
2022/11/21 00:36:15;;;;;;;0.40;0.40;;;13.40;61.50;;;;;;5088157;28;45428;-89
2022/11/21 00:38:42;;;;;;;0.45;0.45;;;13.40;61.50;;;;;;5088196;28;45204;-89
2022/11/21 00:41:09;;;;;;;0.60;0.40;;;13.40;61.50;;;;;;5088177;28;45308;-89
2022/11/21 00:43:36;;;;;;;0.52;0.52;;;13.40;61.50;;;;;;5088350;28;45370;-89
2022/11/21 00:46:03;;;;;;;0.60;0.60;;;13.40;61.50;;;;;;5087974;28;46404;-89
2022/11/21 00:48:30;;;;;;;0.43;0.43;;;13.40;61.50;;;;;;5087947;28;45205;-89
2022/11/21 00:50:59;;;;;;;1.42;0.55;;;13.40;61.40;;;;;;5088212;28;45228;-89
2022/11/21 00:53:26;;;;;;;0.60;0.60;;;13.40;61.50;;;;;;5088011;28;45307;-88
2022/11/21 00:55:53;;;;;;;0.88;0.47;;;13.40;61.50;;;;;;5087670;28;46824;-89
2022/11/21 00:58:19;;;;;;;1.02;0.40;;;13.40;61.50;;;;;;5087837;28;44711;-89
2022/11/21 01:00:46;;;;;;;0.40;0.40;;;13.40;61.40;;;;;;5087749;28;45250;-89
2022/11/21 01:03:13;;;;;;;0.70;0.50;;;13.40;61.40;;;;;;5088055;27;45521;-89
2022/11/21 01:05:40;;;;;;;1.40;0.70;;;13.40;61.40;;;;;;5087196;28;46809;-88
2022/11/21 01:08:08;;;;;;;1.40;0.47;;;13.40;61.40;;;;;;5086745;28;45436;-89
2022/11/21 01:10:35;;;;;;;0.60;0.60;;;13.40;61.40;;;;;;5087868;28;45199;-90
2022/11/21 01:13:02;;;;;;;0.40;0.40;;;13.40;61.50;;;;;;5087888;28;45463;-89
2022/11/21 01:15:29;;;;;;;0.28;0.28;;;13.40;61.50;;;;;;5087663;28;47605;-89
2022/11/21 01:17:56;;;;;;;0.60;0.60;;;13.40;61.40;;;;;;5087288;28;45294;-88
2022/11/21 01:20:23;;;;;;;0.50;0.50;;;13.40;61.40;;;;;;5087573;28;45288;-88
2022/11/21 01:22:50;;;;;;;0.85;0.40;;;13.40;61.40;;;;;;5087833;28;45187;-88
2022/11/21 01:25:18;;;;;;;0.50;0.50;;;13.40;61.40;;;;;;5087129;28;45732;-89
2022/11/21 01:27:45;;;;;;;0.40;0.35;;;13.40;61.40;;;;;;5087116;28;45387;-88
2022/11/21 01:30:13;;;;;;;1.73;0.57;;;13.40;61.40;;;;;;5087424;28;45417;-90
2022/11/21 01:32:40;;;;;;;0.68;0.60;;;13.40;61.40;;;;;;5087719;28;45590;-88
2022/11/21 01:35:08;;;;;;;0.60;0.40;;;13.40;61.40;;;;;;5087100;28;45357;-88
2022/11/21 01:37:35;;;;;;;0.63;0.30;;;13.40;61.40;;;;;;5090622;28;45287;-89
2022/11/21 01:40:02;;;;;;;0.57;0.55;;;13.40;62.10;;;;;;5091133;28;45319;-89
2022/11/21 01:42:31;;;;;;;0.47;0.47;;;13.40;61.40;;;;;;5091078;27;45470;-89
2022/11/21 01:44:59;;;;;;;0.63;0.55;;;13.30;61.30;;;;;;5090347;27;45773;-89
2022/11/21 01:47:26;;;;;;;1.00;0.40;;;13.40;61.40;;;;;;5090743;28;45310;-89
2022/11/21 01:49:53;;;;;;;1.40;0.57;;;13.40;61.30;;;;;;5090762;28;44742;-89
2022/11/21 01:52:21;;;;;;;1.13;0.32;;;13.40;61.30;;;;;;5090904;28;45535;-89
2022/11/21 01:54:49;;;;;;;0.57;0.57;;;13.40;61.30;;;;;;5090091;28;46795;-91
2022/11/21 01:57:17;;;;;;;0.93;0.65;;;13.40;61.30;;;;;;5090603;28;45368;-90
2022/11/21 01:59:47;;;;;;;0.55;0.52;;;13.40;61.30;;;;;;5091352;28;45288;-89
2022/11/21 02:02:14;;;;;;;0.35;0.30;;;13.40;61.30;;;;;;5091350;28;45131;-90
2022/11/21 02:04:42;;;;;;;0.50;0.50;;;13.40;61.30;;;;;;5090631;28;46833;-90
2022/11/21 02:07:08;;;;;;;2.80;0.60;;;13.40;61.30;;;;;;5090719;27;45298;-89
2022/11/21 02:09:37;;;;;;;1.85;0.43;;;13.40;61.40;;;;;;5090305;28;45190;-88
2022/11/21 02:12:06;;;;;;;0.55;0.32;;;13.40;61.30;;;;;;5091229;28;45272;-89
2022/11/21 02:14:33;;;;;;;1.50;0.47;;;13.40;61.30;;;;;;5090627;28;46335;-89
2022/11/21 02:17:03;;;;;;;1.27;0.57;;;13.40;61.30;;;;;;5090073;28;45209;-89
2022/11/21 02:19:33;;;;;;;0.65;0.50;;;13.30;61.20;;;;;;5090479;28;45192;-89
2022/11/21 02:22:01;;;;;;;1.05;0.50;;;13.40;61.30;;;;;;5090718;28;45226;-89
2022/11/21 02:24:30;;;;;;;0.88;0.50;;;13.40;61.30;;;;;;5090094;28;46469;-88
2022/11/21 02:26:58;;;;;;;0.80;0.40;;;13.30;61.20;;;;;;5089743;28;45341;-90
2022/11/21 02:29:25;;;;;;;0.50;0.50;;;13.30;61.20;;;;;;5090284;28;44636;-89
2022/11/21 02:31:52;;;;;;;0.40;0.40;;;13.30;61.30;;;;;;5090521;27;45250;-89
2022/11/21 02:34:19;;;;;;;0.50;0.50;;;13.30;61.20;;;;;;5089818;28;47028;-89
2022/11/21 02:36:46;;;;;;;0.40;0.40;;;13.30;61.20;;;;;;5089941;28;45281;-90
2022/11/21 02:39:18;;;;;;;0.65;0.50;;;13.30;61.30;;;;;;5090082;28;45271;-89
2022/11/21 02:41:51;;;;;;;0.40;0.40;;;13.30;61.20;;;;;;5090379;28;45405;-89
2022/11/21 02:44:22;;;;;;;0.47;0.47;;;13.30;61.20;;;;;;5089914;28;45703;-89
2022/11/21 02:46:50;;;;;;;0.85;0.57;;;13.30;61.30;;;;;;5089764;28;44785;-90
2022/11/21 02:49:18;;;;;;;1.17;0.50;;;13.30;61.20;;;;;;5089420;28;45429;-88
2022/11/21 02:51:45;;;;;;;0.43;0.40;;;13.30;61.20;;;;;;5089653;28;45327;-90
2022/11/21 02:54:12;;;;;;;0.40;0.40;;;13.30;61.20;;;;;;5089477;28;45324;-89
2022/11/21 02:56:39;;;;;;;1.02;0.47;;;13.30;61.20;;;;;;5089778;28;44704;-88
2022/11/21 02:59:06;;;;;;;0.63;0.63;;;13.30;61.20;;;;;;5089792;28;45188;-88
2022/11/21 03:01:34;;;;;;;1.35;0.45;;;13.30;61.20;;;;;;5090051;28;45197;-90
2022/11/21 03:04:01;;;;;;;0.75;0.55;;;13.30;61.20;;;;;;5089849;28;46600;-90
2022/11/21 03:06:28;;;;;;;0.60;0.60;;;13.30;61.20;;;;;;5089704;28;45293;-90
2022/11/21 03:08:55;;;;;;;0.65;0.65;;;13.30;61.20;;;;;;5089698;28;45308;-90
2022/11/21 03:11:22;;;;;;;0.40;0.40;;;13.30;61.20;;;;;;5090001;28;45514;-90
2022/11/21 03:13:48;;;;;;;0.60;0.60;;;13.30;61.30;;;;;;5089555;28;45609;-89
2022/11/21 03:16:15;;;;;;;0.40;0.40;;;13.30;61.30;;;;;;5089391;28;45368;-90
2022/11/21 03:18:43;;;;;;;0.45;0.45;;;13.30;61.30;;;;;;5089572;28;45272;-89
2022/11/21 03:21:10;;;;;;;0.70;0.50;;;13.30;61.30;;;;;;5089797;28;45412;-90
2022/11/21 03:23:37;;;;;;;0.85;0.70;;;13.30;61.20;;;;;;5089419;28;45531;-89
2022/11/21 03:26:04;;;;;;;0.68;0.50;;;13.30;61.30;;;;;;5089256;28;45235;-89
2022/11/21 03:28:31;;;;;;;0.57;0.57;;;13.30;61.30;;;;;;5089128;28;45312;-90
2022/11/21 03:30:58;;;;;;;0.90;0.60;;;13.30;61.30;;;;;;5089683;28;45398;-89
2022/11/21 03:33:25;;;;;;;1.00;0.70;;;13.30;61.30;;;;;;5089244;28;45498;-89
2022/11/21 03:35:53;;;;;;;0.55;0.40;;;13.30;61.30;;;;;;5089566;28;45205;-89
2022/11/21 03:38:20;;;;;;;0.20;0.20;;;13.30;61.30;;;;;;5088933;28;45177;-90
2022/11/21 03:40:47;;;;;;;1.55;0.68;;;13.30;61.30;;;;;;5089329;28;45282;-90
2022/11/21 03:43:14;;;;;;;1.42;0.35;;;13.30;61.40;;;;;;5089410;28;45823;-90
2022/11/21 03:45:40;;;;;;;0.75;0.40;;;13.30;61.40;;;;;;5089020;27;45269;-89
2022/11/21 03:48:07;;;;;;;0.90;0.47;;;13.30;61.30;;;;;;5089149;28;45221;-90
2022/11/21 03:50:34;;;;;;;0.80;0.43;;;13.30;61.40;;;;;;5089559;28;45228;-88
2022/11/21 03:53:02;;;;;;;1.05;0.63;;;13.30;61.30;;;;;;5089127;28;45753;-90
2022/11/21 03:55:29;;;;;;;0.50;0.40;;;13.30;61.30;;;;;;5088865;27;45380;-89
2022/11/21 03:57:56;;;;;;;0.40;0.40;;;13.30;61.30;;;;;;5089108;28;45399;-90
2022/11/21 04:00:23;;;;;;;0.40;0.40;;;13.30;61.30;;;;;;5087696;27;45269;-89
2022/11/21 04:02:50;;;;;;;0.57;0.57;;;13.30;61.30;;;;;;5088531;28;45558;-89
2022/11/21 04:05:17;;;;;;;1.10;0.50;;;13.20;61.30;;;;;;5088847;28;45423;-91
2022/11/21 04:07:45;;;;;;;0.40;0.40;;;13.20;61.30;;;;;;5088807;28;45161;-89
2022/11/21 04:10:13;;;;;;;0.43;0.43;;;13.20;61.20;;;;;;5089070;28;45501;-90
2022/11/21 04:12:40;;;;;;;1.08;0.30;;;13.20;61.30;;;;;;5088518;28;45727;-89
2022/11/21 04:15:07;;;;;;;0.65;0.40;;;13.20;61.30;;;;;;5088669;28;45300;-90
2022/11/21 04:17:34;;;;;;;0.55;0.55;;;13.20;61.30;;;;;;5088704;28;45287;-90
2022/11/21 04:20:01;;;;;;;1.00;0.60;;;13.20;61.30;;;;;;5088727;28;45231;-90
2022/11/21 04:22:28;;;;;;;1.38;0.77;;;13.20;61.30;;;;;;5088165;28;45734;-89
2022/11/21 04:24:55;;;;;;;0.50;0.50;;;13.20;62.00;;;;;;5087385;28;45213;-89
2022/11/21 04:27:23;;;;;;;0.40;0.40;;;13.20;61.20;;;;;;5088080;28;45561;-88
2022/11/21 04:29:50;;;;;;;0.50;0.50;;;13.20;61.30;;;;;;5088755;28;45462;-88
2022/11/21 04:32:17;;;;;;;0.45;0.43;;;13.20;61.30;;;;;;5088267;28;45776;-89
2022/11/21 04:34:44;;;;;;;1.98;0.52;;;13.20;61.30;;;;;;5088110;28;45260;-89
2022/11/21 04:37:11;;;;;;;0.90;0.35;;;13.20;61.30;;;;;;5088133;28;45383;-91
2022/11/21 04:39:37;;;;;;;1.08;0.52;;;13.20;61.30;;;;;;5088536;28;45320;-89
2022/11/21 04:42:04;;;;;;;0.82;0.43;;;13.20;61.30;;;;;;5087788;28;46599;-89
2022/11/21 04:44:33;;;;;;;0.98;0.45;;;13.20;61.20;;;;;;5088296;28;45290;-89
2022/11/21 04:47:00;;;;;;;1.00;0.52;;;13.20;61.30;;;;;;5088363;28;45247;-89
2022/11/21 04:49:26;;;;;;;0.52;0.30;;;13.20;61.30;;;;;;5090759;28;45339;-89
2022/11/21 04:51:53;;;;;;;0.57;0.40;;;13.20;61.30;;;;;;5089413;28;45296;-89
2022/11/21 04:54:20;;;;;;;0.38;0.38;;;13.10;61.30;;;;;;5088825;28;45241;-90
2022/11/21 04:56:47;;;;;;;1.00;0.47;;;13.10;61.30;;;;;;5089056;28;45254;-88
2022/11/21 04:59:14;;;;;;;1.23;0.40;;;13.10;61.30;;;;;;5089370;28;45601;-88
2022/11/21 05:01:42;;;;;;;0.30;0.30;;;13.20;61.40;;;;;;5088516;28;45508;-90
2022/11/21 05:04:09;;;;;;;0.80;0.55;;;13.10;61.40;;;;;;5088603;28;45280;-87
2022/11/21 05:06:36;;;;;;;0.77;0.38;;;13.10;61.30;;;;;;5088442;28;45159;-87
2022/11/21 05:09:03;;;;;;;0.45;0.45;;;13.10;61.30;;;;;;5092942;28;45463;-88
2022/11/21 05:14:14;;;;;;;0.35;0.35;;;13.10;61.40;;;;;;5085261;28;45232;-88
2022/11/21 05:16:42;;;;;;;0.20;0.20;;;13.10;61.40;;;;;;5087120;28;45332;-87
2022/11/21 05:19:09;;;;;;;0.38;0.22;;;13.10;61.40;;;;;;5088383;28;45345;-89
2022/11/21 05:21:36;;;;;;;0.30;0.30;;;13.10;61.40;;;;;;5087919;28;45579;-89
2022/11/21 05:24:04;;;;;;;0.40;0.40;;;13.10;61.30;;;;;;5087926;27;45275;-88
2022/11/21 05:26:30;;;;;;;0.40;0.40;;;13.10;61.30;;;;;;5091578;28;45222;-90
2022/11/21 05:28:57;;;;;;;0.88;0.65;;;13.10;61.30;;;;;;5089160;28;45474;-89
2022/11/21 05:31:24;;;;;;;0.30;0.30;;;13.10;61.30;;;;;;5087803;28;45301;-88
2022/11/21 05:33:52;;;;;;;0.40;0.40;;;13.10;61.40;;;;;;5087585;28;45182;-89
2022/11/21 05:36:19;;;;;;;0.73;0.40;;;13.00;61.20;;;;;;5087856;28;45189;-89
2022/11/21 05:38:46;;;;;;;0.70;0.40;;;13.00;61.30;;;;;;5087949;28;45307;-89
2022/11/21 05:41:13;;;;;;;0.57;0.40;;;13.00;61.30;;;;;;5087563;28;46729;-89
2022/11/21 05:43:45;;;;;;;1.13;0.50;;;13.00;61.20;;;;;;5087619;28;45315;-89
2022/11/21 05:46:12;;;;;;;2.30;0.70;;;13.00;61.20;;;;;;5088067;27;45484;-87
2022/11/21 05:48:39;;;;;;;0.30;0.30;;;13.00;61.20;;;;;;5087940;28;45458;-89
2022/11/21 05:51:07;;;;;;;0.88;0.50;;;13.10;61.40;;;;;;5088412;28;46703;-88
2022/11/21 05:53:34;;;;;;;0.30;0.30;;;13.00;61.30;;;;;;5088144;28;45151;-88
2022/11/21 05:56:03;;;;;;;1.48;0.43;;;13.00;61.30;;;;;;5087852;28;45252;-88
2022/11/21 05:58:30;;;;;;;0.82;0.43;;;13.00;61.30;;;;;;5088373;28;45239;-90
2022/11/21 06:00:57;;;;;;;0.88;0.45;;;13.00;61.30;;;;;;5087737;28;45240;-88
2022/11/21 06:03:26;;;;;;;0.57;0.20;;;13.00;61.20;;;;;;5090185;28;45250;-87
2022/11/21 06:05:53;;;;;;;0.50;0.40;;;13.00;61.30;;;;;;5086805;28;45284;-89
2022/11/21 06:08:21;;;;;;;0.30;0.30;;;13.00;61.30;;;;;;5087445;28;45297;-88
2022/11/21 06:10:48;;;;;;;2.45;0.30;;;13.00;61.30;;;;;;5087556;28;47075;-88
2022/11/21 06:13:23;;;;;;;0.50;0.50;;;13.00;61.30;;;;;;5088032;27;45212;-89
2022/11/21 06:15:51;;;;;;;0.70;0.40;;;13.00;61.20;;;;;;5087657;28;45197;-89
2022/11/21 06:18:18;;;;;;;0.20;0.20;;;13.00;61.20;;;;;;5087690;28;45447;-89
2022/11/21 06:20:45;;;;;;;1.13;0.40;;;13.00;61.30;;;;;;5086838;28;45552;-90
2022/11/21 06:23:12;;;;;;;0.32;0.32;;;13.00;61.30;;;;;;5088060;27;45269;-88
2022/11/21 06:25:41;;;;;;;0.43;0.30;;;13.00;61.20;;;;;;5090417;28;45177;-88
2022/11/21 06:28:08;;;;;;;0.30;0.30;;;13.00;61.30;;;;;;5090292;28;45573;-90
2022/11/21 06:30:35;;;;;;;0.75;0.50;;;13.00;61.30;;;;;;5090336;28;45510;-89
2022/11/21 06:33:03;;;;;;;0.73;0.50;;;13.00;61.30;;;;;;5090139;28;45322;-89
2022/11/21 06:35:30;;;;;;;0.95;0.40;;;13.00;61.30;;;;;;5090361;28;45218;-89
2022/11/21 06:37:57;;;;;;;0.50;0.50;;;13.00;61.20;;;;;;5090524;28;45316;-91
2022/11/21 06:40:24;;;;;;;0.77;0.50;;;12.90;61.30;;;;;;5089756;28;45490;-89
2022/11/21 06:42:52;;;;;;;0.32;0.32;;;13.00;61.30;;;;;;5089582;28;45368;-90
2022/11/21 06:45:19;;;;;;;0.60;0.60;;;13.00;61.20;;;;;;5090100;28;45236;-90
2022/11/21 06:47:47;;;;;;;1.15;0.30;;;12.90;61.20;;;;;;5090082;28;45196;-89
2022/11/21 06:50:14;;;;;;;0.60;0.52;;;12.90;61.20;;;;;;5089968;28;45611;-89
2022/11/21 06:52:41;;;;;;;0.57;0.28;;;12.90;61.30;;;;;;5089892;28;45287;-90
2022/11/21 06:55:09;;;;;;;0.40;0.40;;;12.90;61.20;;;;;;5089442;28;45197;-89
2022/11/21 06:57:36;;;;;;;0.40;0.40;;;13.00;61.20;;;;;;5089517;28;45454;-90
2022/11/21 07:00:05;;;;;;;0.90;0.57;;;12.90;61.20;;;;;;5089848;28;46659;-88
2022/11/21 07:02:32;;;;;;;0.47;0.43;;;12.90;61.20;;;;;;5089675;27;45320;-88
2022/11/21 07:04:59;;;;;;;0.77;0.30;;;12.90;61.30;;;;;;5089483;28;45257;-88
2022/11/21 07:07:25;;;;;;;0.68;0.40;;;12.90;61.30;;;;;;5089737;28;45456;-89
2022/11/21 07:09:52;;;;;;;0.45;0.32;;;12.90;61.90;;;;;;5089086;28;47295;-88
2022/11/21 07:15:06;;;;;;;0.60;0.47;;;12.90;61.20;;;;;;5087586;28;45319;-87
2022/11/21 07:17:32;;;;;;;0.60;0.32;;;12.90;61.20;;;;;;5091222;28;45193;-88
2022/11/21 07:19:59;;;;;;;2.08;0.55;;;12.90;61.10;;;;;;5090532;28;45454;-87
2022/11/21 07:22:26;;;;;;;1.20;0.45;;;12.90;61.20;;;;;;5090650;28;45198;-87
2022/11/21 07:24:53;;;;;;;0.88;0.52;;;12.90;61.10;;;;;;5091258;28;45414;-88
2022/11/21 07:27:20;;;;;;;0.85;0.63;;;12.90;61.10;;;;;;5089914;28;45400;-87
2022/11/21 07:29:47;;;;;;;1.30;0.43;;;12.90;61.10;;;;;;5090639;28;46908;-88
2022/11/21 07:32:15;;;;;;;1.60;0.70;;;12.90;61.10;;;;;;5090607;27;45219;-87
2022/11/21 07:34:42;;;;;;;0.77;0.43;;;12.90;61.10;;;;;;5089952;28;45395;-88
2022/11/21 07:37:09;;;;;;;0.77;0.40;;;12.90;61.10;;;;;;5089262;28;45345;-88
2022/11/21 07:39:37;;;;;;;0.73;0.47;;;12.90;61.10;;;;;;5089144;28;45461;-87
2022/11/21 07:42:04;;;;;;;1.63;0.75;;;12.90;61.10;;;;;;5088753;28;45148;-88
2022/11/21 07:44:30;;;;;;;0.57;0.57;;;12.90;61.10;;;;;;5089060;28;45237;-88
2022/11/21 07:46:57;;;;;;;0.63;0.52;;;12.90;61.10;;;;;;5088630;28;45461;-86
2022/11/21 07:49:25;;;;;;;0.95;0.60;;;12.90;61.10;;;;;;5087632;28;46563;-87
2022/11/21 07:51:52;;;;;;;0.95;0.60;;;12.90;61.10;;;;;;5088893;28;45249;-88
2022/11/21 07:54:19;;;;;;;0.60;0.60;;;12.90;61.10;;;;;;5088870;28;45191;-88
2022/11/21 07:56:46;;;;;;;1.92;0.68;;;12.90;61.10;;;;;;5089331;28;45245;-88
2022/11/21 07:59:13;;;;;;;1.00;0.60;;;12.90;61.80;;;;;;5088729;28;45661;-89
2022/11/21 08:01:40;;;;;;;1.42;0.70;;;12.90;61.10;;;;;;5088609;28;45280;-88
2022/11/21 08:04:07;;;;;;;0.70;0.70;;;12.90;61.00;;;;;;5088529;28;45307;-89
2022/11/21 08:06:35;;;;;;;0.60;0.60;;;12.90;61.10;;;;;;5089043;28;45135;-88
2022/11/21 08:09:02;;;;;;;1.95;0.90;;;12.90;61.00;;;;;;5088312;28;45521;-88
2022/11/21 08:11:29;;;;;;;1.23;0.80;;;12.90;61.00;;;;;;5088261;28;45241;-89
2022/11/21 08:13:58;;;;;;;0.70;0.70;;;12.90;61.00;;;;;;5088552;27;45351;-87
2022/11/21 08:16:26;;;;;;;2.60;0.98;;;12.90;60.90;;;;;;5089011;28;45198;-87
2022/11/21 08:18:53;;;;;;;0.98;0.60;;;12.90;60.90;;;;;;5088784;28;45437;-87
2022/11/21 08:21:20;;;;;;;0.80;0.80;;;13.00;61.00;;;;;;5088526;28;45295;-86
2022/11/21 08:23:49;;;;;;;0.85;0.85;;;13.00;61.00;;;;;;5088981;28;45388;-87
2022/11/21 08:26:16;;;;;;;2.10;0.90;;;12.90;60.90;;;;;;5088547;28;45309;-86
2022/11/21 08:28:43;;;;;;;1.27;0.90;;;12.90;60.90;;;;;;5088100;28;45749;-87
2022/11/21 08:31:10;;;;;;;1.33;0.82;;;13.00;61.00;;;;;;5088423;28;45402;-88
2022/11/21 08:33:37;;;;;;;1.48;0.88;;;13.00;60.90;;;;;;5088649;28;45295;-86
2022/11/21 08:36:04;;;;;;;1.48;1.00;;;13.00;60.90;;;;;;5088057;28;45186;-87
2022/11/21 08:38:31;;;;;;;1.20;0.70;;;13.00;60.90;;;;;;5088388;28;46381;-87
2022/11/21 08:43:43;;;;;;;0.82;0.80;;;13.00;60.80;;;;;;5085745;28;45303;-86
2022/11/21 08:46:10;;;;;;;1.30;0.80;;;13.00;60.80;;;;;;5088095;27;45451;-85
2022/11/21 08:48:37;;;;;;;3.70;1.05;;;13.00;60.80;;;;;;5089046;28;46939;-86
2022/11/21 08:51:04;;;;;;;1.63;1.08;;;13.00;60.80;;;;;;5087457;28;45178;-84
2022/11/21 08:53:31;;;;;;;1.20;0.93;;;13.00;60.80;;;;;;5088277;28;45205;-84
2022/11/21 08:55:59;;;;;;;1.52;1.17;;;13.00;60.80;;;;;;5088406;28;45191;-85
2022/11/21 08:58:26;;;;;;;1.20;1.10;;;13.10;60.80;;;;;;5087736;28;47410;-85
2022/11/21 09:00:53;;;;;;;1.48;0.95;;;13.10;60.80;;;;;;5087772;28;45308;-85
2022/11/21 09:03:20;;;;;;;1.48;1.10;;;13.10;60.70;;;;;;5088346;27;45202;-84
2022/11/21 09:05:47;;;;;;;5.07;1.17;;;13.10;60.60;;;;;;5087960;28;45127;-85
2022/11/21 09:08:13;;;;;;;2.05;1.20;;;13.10;60.70;;;;;;5087462;28;45531;-85
2022/11/21 09:10:40;;;;;;;3.70;1.30;;;13.10;60.60;;;;;;5087405;28;45353;-86
2022/11/21 09:13:09;;;;;;;1.92;1.15;;;13.10;60.60;;;;;;5087879;27;45280;-87
2022/11/21 09:18:20;;;;;;;1.77;1.27;;;13.10;60.50;;;;;;5086030;28;45210;-85
2022/11/21 09:20:47;;;;;;;1.55;1.23;;;13.20;60.60;;;;;;5088302;28;45255;-86
2022/11/21 09:23:14;;;;;;;2.22;1.30;;;13.20;60.60;;;;;;5088917;28;45221;-85
2022/11/21 09:25:41;;;;;;;1.10;1.00;;;13.20;60.50;;;;;;5087778;28;45288;-85
2022/11/21 09:28:10;;;;;;;1.52;1.20;;;13.20;60.40;;;;;;5087830;28;45386;-86
2022/11/21 09:30:37;;;;;;;1.42;1.20;;;13.20;60.40;;;;;;5087412;28;45186;-86
2022/11/21 09:33:05;;;;;;;1.45;1.13;;;13.20;60.30;;;;;;5088168;28;45334;-85
2022/11/21 09:35:32;;;;;;;3.40;1.30;;;13.30;60.30;;;;;;5089232;28;45279;-85
2022/11/21 09:37:59;;;;;;;1.95;1.20;;;13.30;60.20;;;;;;5087978;28;45615;-85
2022/11/21 09:40:26;;;;;;;1.25;1.15;;;13.30;60.20;;;;;;5087479;28;45198;-85
2022/11/21 09:43:06;;;;;;;1.20;1.10;;;13.30;60.10;;;;;;5087245;28;45201;-85
2022/11/21 09:45:34;;;;;;;5.15;1.65;;;13.30;60.10;;;;;;5088030;28;45364;-85
2022/11/21 09:48:03;;;;;;;2.00;1.27;;;13.40;60.00;;;;;;5087273;28;46766;-85
2022/11/21 09:50:32;;;;;;;2.35;1.50;;;13.40;60.00;;;;;;5087334;28;45297;-85
2022/11/21 09:53:02;;;;;;;1.80;1.25;;;13.40;60.00;;;;;;5087992;28;45336;-86
2022/11/21 09:55:32;;;;;;;2.50;1.42;;;13.40;60.00;;;;;;5087037;28;45611;-86
2022/11/21 09:58:00;;;;;;;1.35;1.25;;;13.40;60.00;;;;;;5089699;27;45356;-84
2022/11/21 10:00:27;;;;;;;2.55;1.10;;;13.40;60.00;;;;;;5091526;28;45249;-85
2022/11/21 10:02:55;;;;;;;4.25;1.40;;;13.40;60.00;;;;;;5090863;28;45277;-85
2022/11/21 10:05:25;;;;;;;2.33;1.48;;;13.40;60.00;;;;;;5091173;28;45312;-85
2022/11/21 10:07:52;;;;;;;2.88;1.27;;;13.40;60.10;;;;;;5090702;28;45497;-86
2022/11/21 10:10:25;;;;;;;4.07;1.35;;;13.40;60.10;;;;;;5090884;28;45304;-85
2022/11/21 10:13:07;;;;;;;1.70;1.23;;;13.40;60.10;;;;;;5090605;28;45215;-85
2022/11/21 10:15:42;;;;;;;3.25;1.20;;;13.40;60.10;;;;;;5090835;28;45283;-85
2022/11/21 10:18:24;;;;;;;3.88;1.50;;;13.40;60.20;;;;;;5090970;28;46701;-86
2022/11/21 10:20:54;;;;;;;1.38;1.00;;;13.50;60.10;;;;;;5091722;28;45274;-86
2022/11/21 10:23:36;;;;;;;1.65;1.17;;;13.50;60.00;;;;;;5090786;28;45205;-85
2022/11/21 10:26:13;;;;;;;2.80;1.58;;;13.50;60.00;;;;;;5091232;28;45376;-85
2022/11/21 10:28:42;;;;;;;2.03;1.20;;;13.50;60.00;;;;;;5089959;28;46456;-85
2022/11/21 10:31:09;;;;;;;2.78;1.45;;;13.50;60.00;;;;;;5090062;28;45239;-86
2022/11/21 10:33:39;;;;;;;3.33;1.45;;;13.50;60.10;;;;;;5090711;28;45272;-85
2022/11/21 10:36:07;;;;;;;1.58;1.33;;;13.50;60.10;;;;;;5090376;28;45124;-86
2022/11/21 10:38:37;;;;;;;2.35;1.30;;;13.60;60.00;;;;;;5090253;28;45440;-84
2022/11/21 10:41:06;;;;;;;3.42;1.30;;;13.60;60.00;;;;;;5089896;28;45340;-85
2022/11/21 10:46:20;;;;;;;1.85;1.20;;;13.60;59.90;;;;;;5087829;28;45340;-85
2022/11/21 10:48:50;;;;;;;2.65;1.30;;;13.70;59.80;;;;;;5089856;27;47758;-85
2022/11/21 10:51:27;;;;;;;2.92;1.25;;;13.70;59.70;;;;;;5089947;28;45250;-84
2022/11/21 10:56:49;;;;;;;3.10;1.55;;;13.80;59.60;;;;;;5087653;28;45502;-85
2022/11/21 10:59:22;;;;;;;2.67;1.23;;;13.90;59.50;;;;;;5089364;28;45284;-86
2022/11/21 11:01:54;;;;;;;3.47;1.30;;;13.90;59.40;;;;;;5089154;28;45193;-85
2022/11/21 11:04:23;;;;;;;2.67;1.48;;;14.00;59.30;;;;;;5089333;28;45291;-86
2022/11/21 11:06:49;;;;;;;3.63;1.65;;;14.00;59.20;;;;;;5089723;28;45348;-84
2022/11/21 11:09:28;;;;;;;4.00;1.40;;;14.10;59.20;;;;;;5088318;27;45907;-84
2022/11/21 11:12:10;;;;;;;1.58;1.30;;;14.10;58.90;;;;;;5089253;28;45282;-85
2022/11/21 11:14:37;;;;;;;2.53;1.45;;;14.20;58.90;;;;;;5088937;27;45250;-85
2022/11/21 11:17:03;;;;;;;1.38;1.20;;;14.20;58.90;;;;;;5089876;27;45395;-85
2022/11/21 11:19:32;;;;;;;4.07;1.30;;;14.20;58.90;;;;;;5089395;28;45306;-86
2022/11/21 11:21:58;;;;;;;3.63;1.25;;;14.20;59.10;;;;;;5088917;28;45249;-85
2022/11/21 11:24:26;;;;;;;2.03;1.33;;;14.20;58.90;;;;;;5088430;28;45388;-85
2022/11/21 11:26:58;;;;;;;2.80;1.10;;;14.20;58.90;;;;;;5088243;28;45325;-85
2022/11/21 11:29:25;;;;;;;1.33;1.20;;;14.30;58.90;;;;;;5088901;28;45728;-86
2022/11/21 11:31:54;;;;;;;1.95;1.10;;;14.30;58.70;;;;;;5088937;28;45346;-86
2022/11/21 11:34:21;;;;;;;1.92;1.25;;;14.30;58.70;;;;;;5089146;28;45190;-86
2022/11/21 11:37:04;;;;;;;2.33;1.25;;;14.30;58.70;;;;;;5089053;28;45182;-85
2022/11/21 11:39:41;;;;;;;1.55;1.10;;;14.30;59.40;;;;;;5094705;28;45737;-87
2022/11/21 11:48:11;;;;;;;1.25;1.15;;;14.20;59.20;;;;;;5090131;28;45327;-86
2022/11/21 11:50:41;;;;;;;2.50;1.17;;;14.30;59.00;;;;;;5088875;28;45487;-87
2022/11/21 11:53:11;;;;;;;2.55;1.38;;;14.40;58.70;;;;;;5088546;28;45182;-86
2022/11/21 11:55:42;;;;;;;2.10;1.30;;;14.50;58.40;;;;;;5088578;28;45319;-85
2022/11/21 11:58:18;;;;;;;1.52;1.10;;;14.60;58.20;;;;;;5090030;28;45137;-86
2022/11/21 12:00:47;;;;;;;1.73;1.15;;;14.60;58.80;;;;;;5092651;28;45632;-85
2022/11/21 12:03:15;;;;;;;2.00;1.15;;;14.60;58.20;;;;;;5088988;28;45445;-85
2022/11/21 12:05:52;;;;;;;2.38;1.00;;;14.70;58.20;;;;;;5088669;28;45191;-87
2022/11/21 12:08:21;;;;;;;3.15;1.40;;;14.70;58.10;;;;;;5092354;28;45127;-85
2022/11/21 12:13:35;;;;;;;1.55;1.13;;;14.90;57.90;;;;;;5088162;28;45237;-86
2022/11/21 12:16:03;;;;;;;1.23;0.90;;;14.90;57.90;;;;;;5088148;28;45288;-85
2022/11/21 12:18:33;;;;;;;3.20;1.23;;;14.80;58.50;;;;;;5088738;28;45439;-85
2022/11/21 12:21:03;;;;;;;1.20;1.10;;;14.70;58.40;;;;;;5089797;28;47109;-85
2022/11/21 12:23:33;;;;;;;1.58;1.23;;;14.70;58.60;;;;;;5093371;27;45511;-85
2022/11/21 12:26:08;;;;;;;1.80;1.20;;;14.60;58.80;;;;;;5089009;28;45413;-86
2022/11/21 12:28:38;;;;;;;4.13;0.80;;;14.60;58.90;;;;;;5090690;28;45307;-86
2022/11/21 12:31:08;;;;;;;2.75;1.15;;;14.60;58.90;;;;;;5095581;28;45649;-85
2022/11/21 12:33:36;;;;;;;2.47;1.15;;;14.60;59.00;;;;;;5092900;28;45205;-85
2022/11/21 12:36:24;;;;;;;2.08;1.27;;;14.60;59.00;;;;;;5093201;28;45238;-84
2022/11/21 12:39:16;;;;;;;1.63;1.20;;;14.60;59.10;;;;;;5091450;28;45469;-88
2022/11/21 12:44:38;;;;;;;1.25;0.95;;;14.60;59.10;;;;;;5088432;28;45356;-87
2022/11/21 12:47:17;;;;;;;1.02;0.98;;;14.60;59.10;;;;;;5087793;28;45389;-87
2022/11/21 12:55:32;;;;;;;1.02;0.90;;;14.50;59.30;;;;;;5053972;28;45407;-87
2022/11/21 12:58:08;;;;;;;2.08;0.80;;;14.50;60.00;;;;;;5088128;28;45308;-87
2022/11/21 13:00:48;;;;;;;1.95;0.90;;;14.50;60.30;;;;;;5089107;28;45471;-87
2022/11/21 13:03:33;;;;;;;1.13;1.00;;;14.50;59.60;;;;;;5089007;28;45557;-88
2022/11/21 13:06:00;;;;;;;2.80;0.95;;;14.50;59.80;;;;;;5088053;28;45380;-88
2022/11/21 13:08:28;;;;;;;1.63;1.10;;;14.50;59.90;;;;;;5087936;28;45297;-87
2022/11/21 13:11:57;;;;;;;1.52;1.10;;;14.40;59.70;;;;;;5088217;27;45455;-87
2022/11/21 13:13:46;;;;;;;3.28;1.00;;;14.40;60.00;;;;;;5087447;28;46077;-87
2022/11/21 13:16:35;;;;;;;3.00;0.98;;;14.40;60.10;;;;;;5087679;28;45314;-86
2022/11/21 13:19:03;;;;;;;2.05;1.50;;;14.40;60.20;;;;;;5088512;28;45239;-87
2022/11/21 13:21:42;;;;;;;1.05;0.85;;;14.40;61.00;;;;;;5088835;28;45119;-85
2022/11/21 13:24:09;;;;;;;1.60;0.85;;;14.40;60.40;;;;;;5089051;28;45742;-87
2022/11/21 13:26:52;;;;;;;1.40;1.00;;;14.40;60.40;;;;;;5090591;28;45198;-87
2022/11/21 13:29:19;;;;;;;1.65;0.95;;;14.40;60.40;;;;;;5088576;28;45291;-87